sensor_id;sensor_type;location;lat;lon;timestamp;P1;durP1;ratioP1;P2;durP2;ratioP2
17197;SDS011;8715;51.010;6.812;2023-12-20T00:02:02;872.08;;;816.80;;
17197;SDS011;8715;51.010;6.812;2023-12-20T00:04:47;864.05;;;809.70;;
17197;SDS011;8715;51.010;6.812;2023-12-20T00:07:33;864.13;;;809.53;;
17197;SDS011;8715;51.010;6.812;2023-12-20T00:10:19;864.42;;;809.53;;
17197;SDS011;8715;51.010;6.812;2023-12-20T00:13:03;866.75;;;811.88;;
17197;SDS011;8715;51.010;6.812;2023-12-20T00:19:18;858.85;;;804.85;;
17197;SDS011;8715;51.010;6.812;2023-12-20T00:22:04;863.65;;;809.38;;
17197;SDS011;8715;51.010;6.812;2023-12-20T00:24:49;879.03;;;823.97;;
17197;SDS011;8715;51.010;6.812;2023-12-20T00:31:16;878.63;;;824.13;;
17197;SDS011;8715;51.010;6.812;2023-12-20T00:34:01;865.03;;;811.22;;
17197;SDS011;8715;51.010;6.812;2023-12-20T00:40:09;858.17;;;805.50;;
17197;SDS011;8715;51.010;6.812;2023-12-20T00:42:54;881.63;;;826.83;;
17197;SDS011;8715;51.010;6.812;2023-12-20T00:45:39;861.10;;;808.22;;
17197;SDS011;8715;51.010;6.812;2023-12-20T00:48:24;862.88;;;809.28;;
17197;SDS011;8715;51.010;6.812;2023-12-20T00:51:11;859.70;;;806.63;;
17197;SDS011;8715;51.010;6.812;2023-12-20T00:53:56;863.60;;;810.38;;
17197;SDS011;8715;51.010;6.812;2023-12-20T00:56:49;872.65;;;819.10;;
17197;SDS011;8715;51.010;6.812;2023-12-20T00:59:34;858.80;;;806.42;;
17197;SDS011;8715;51.010;6.812;2023-12-20T01:02:19;862.25;;;809.03;;
17197;SDS011;8715;51.010;6.812;2023-12-20T01:05:04;859.03;;;806.20;;
17197;SDS011;8715;51.010;6.812;2023-12-20T01:11:18;852.05;;;800.28;;
17197;SDS011;8715;51.010;6.812;2023-12-20T01:20:48;852.22;;;800.45;;
17197;SDS011;8715;51.010;6.812;2023-12-20T01:23:33;855.15;;;802.88;;
17197;SDS011;8715;51.010;6.812;2023-12-20T01:26:18;856.78;;;804.28;;
17197;SDS011;8715;51.010;6.812;2023-12-20T01:29:02;854.35;;;802.38;;
17197;SDS011;8715;51.010;6.812;2023-12-20T01:31:47;853.17;;;801.47;;
17197;SDS011;8715;51.010;6.812;2023-12-20T01:34:33;852.53;;;800.55;;
17197;SDS011;8715;51.010;6.812;2023-12-20T01:37:19;858.00;;;805.25;;
17197;SDS011;8715;51.010;6.812;2023-12-20T01:40:04;852.90;;;801.33;;
17197;SDS011;8715;51.010;6.812;2023-12-20T01:42:57;858.47;;;805.88;;
17197;SDS011;8715;51.010;6.812;2023-12-20T01:45:42;851.03;;;799.10;;
17197;SDS011;8715;51.010;6.812;2023-12-20T01:48:27;859.13;;;806.38;;
17197;SDS011;8715;51.010;6.812;2023-12-20T01:51:13;856.13;;;803.85;;
17197;SDS011;8715;51.010;6.812;2023-12-20T01:53:59;848.13;;;796.10;;
17197;SDS011;8715;51.010;6.812;2023-12-20T01:56:45;868.72;;;815.58;;
17197;SDS011;8715;51.010;6.812;2023-12-20T01:59:30;853.55;;;801.47;;
17197;SDS011;8715;51.010;6.812;2023-12-20T02:02:15;848.58;;;797.05;;
17197;SDS011;8715;51.010;6.812;2023-12-20T02:05:00;854.78;;;802.50;;
17197;SDS011;8715;51.010;6.812;2023-12-20T02:07:45;845.17;;;794.65;;
17197;SDS011;8715;51.010;6.812;2023-12-20T02:10:32;848.75;;;798.38;;
17197;SDS011;8715;51.010;6.812;2023-12-20T02:13:17;849.10;;;798.42;;
17197;SDS011;8715;51.010;6.812;2023-12-20T02:16:02;844.20;;;794.60;;
17197;SDS011;8715;51.010;6.812;2023-12-20T02:18:48;848.58;;;798.30;;
17197;SDS011;8715;51.010;6.812;2023-12-20T02:21:34;846.88;;;796.67;;
17197;SDS011;8715;51.010;6.812;2023-12-20T02:24:19;848.78;;;798.20;;
17197;SDS011;8715;51.010;6.812;2023-12-20T02:27:04;843.45;;;794.00;;
17197;SDS011;8715;51.010;6.812;2023-12-20T02:29:50;839.65;;;789.90;;
17197;SDS011;8715;51.010;6.812;2023-12-20T02:32:35;838.88;;;789.30;;
17197;SDS011;8715;51.010;6.812;2023-12-20T02:35:20;846.97;;;797.40;;
17197;SDS011;8715;51.010;6.812;2023-12-20T02:38:07;832.28;;;784.03;;
17197;SDS011;8715;51.010;6.812;2023-12-20T02:40:52;842.58;;;792.53;;
17197;SDS011;8715;51.010;6.812;2023-12-20T02:43:36;841.05;;;792.08;;
17197;SDS011;8715;51.010;6.812;2023-12-20T02:46:22;839.95;;;790.88;;
17197;SDS011;8715;51.010;6.812;2023-12-20T02:49:07;838.35;;;789.30;;
17197;SDS011;8715;51.010;6.812;2023-12-20T02:51:53;841.22;;;792.47;;
17197;SDS011;8715;51.010;6.812;2023-12-20T02:54:39;842.60;;;793.40;;
17197;SDS011;8715;51.010;6.812;2023-12-20T02:57:24;839.28;;;790.22;;
17197;SDS011;8715;51.010;6.812;2023-12-20T03:00:09;841.50;;;792.10;;
17197;SDS011;8715;51.010;6.812;2023-12-20T03:02:55;849.65;;;799.33;;
17197;SDS011;8715;51.010;6.812;2023-12-20T03:05:40;841.15;;;792.13;;
17197;SDS011;8715;51.010;6.812;2023-12-20T03:08:25;847.13;;;797.45;;
17197;SDS011;8715;51.010;6.812;2023-12-20T03:11:12;839.90;;;790.40;;
17197;SDS011;8715;51.010;6.812;2023-12-20T03:13:57;836.22;;;786.55;;
17197;SDS011;8715;51.010;6.812;2023-12-20T03:16:46;841.85;;;792.35;;
17197;SDS011;8715;51.010;6.812;2023-12-20T03:19:31;846.03;;;796.20;;
17197;SDS011;8715;51.010;6.812;2023-12-20T03:22:16;856.53;;;805.95;;
17197;SDS011;8715;51.010;6.812;2023-12-20T03:25:01;840.00;;;790.65;;
17197;SDS011;8715;51.010;6.812;2023-12-20T03:27:48;836.75;;;787.80;;
17197;SDS011;8715;51.010;6.812;2023-12-20T03:30:33;841.97;;;792.70;;
17197;SDS011;8715;51.010;6.812;2023-12-20T03:33:18;845.08;;;794.90;;
17197;SDS011;8715;51.010;6.812;2023-12-20T03:36:03;850.67;;;800.25;;
17197;SDS011;8715;51.010;6.812;2023-12-20T03:38:48;842.38;;;793.08;;
17197;SDS011;8715;51.010;6.812;2023-12-20T03:41:33;866.05;;;813.92;;
17197;SDS011;8715;51.010;6.812;2023-12-20T03:44:19;837.08;;;788.20;;
17197;SDS011;8715;51.010;6.812;2023-12-20T03:47:05;845.85;;;795.53;;
17197;SDS011;8715;51.010;6.812;2023-12-20T03:49:50;839.03;;;790.08;;
17197;SDS011;8715;51.010;6.812;2023-12-20T03:52:35;846.17;;;796.28;;
17197;SDS011;8715;51.010;6.812;2023-12-20T03:55:20;841.75;;;792.50;;
17197;SDS011;8715;51.010;6.812;2023-12-20T03:58:05;844.95;;;794.63;;
17197;SDS011;8715;51.010;6.812;2023-12-20T04:00:52;862.00;;;810.95;;
17197;SDS011;8715;51.010;6.812;2023-12-20T04:03:37;842.90;;;793.72;;
17197;SDS011;8715;51.010;6.812;2023-12-20T04:06:22;844.97;;;795.30;;
17197;SDS011;8715;51.010;6.812;2023-12-20T04:09:07;846.35;;;796.58;;
17197;SDS011;8715;51.010;6.812;2023-12-20T04:11:52;838.53;;;789.28;;
17197;SDS011;8715;51.010;6.812;2023-12-20T04:14:37;837.25;;;787.40;;
17197;SDS011;8715;51.010;6.812;2023-12-20T04:17:24;841.38;;;791.65;;
17197;SDS011;8715;51.010;6.812;2023-12-20T04:20:09;841.80;;;792.38;;
17197;SDS011;8715;51.010;6.812;2023-12-20T04:22:54;839.75;;;790.30;;
17197;SDS011;8715;51.010;6.812;2023-12-20T04:25:39;834.28;;;785.65;;
17197;SDS011;8715;51.010;6.812;2023-12-20T04:28:24;854.83;;;803.70;;
17197;SDS011;8715;51.010;6.812;2023-12-20T04:31:09;839.95;;;790.33;;
17197;SDS011;8715;51.010;6.812;2023-12-20T04:33:55;838.42;;;789.67;;
17197;SDS011;8715;51.010;6.812;2023-12-20T04:36:40;836.83;;;787.47;;
17197;SDS011;8715;51.010;6.812;2023-12-20T04:39:25;839.85;;;790.63;;
17197;SDS011;8715;51.010;6.812;2023-12-20T04:42:10;842.47;;;792.60;;
17197;SDS011;8715;51.010;6.812;2023-12-20T04:44:55;834.22;;;785.85;;
17197;SDS011;8715;51.010;6.812;2023-12-20T04:47:41;835.78;;;787.28;;
17197;SDS011;8715;51.010;6.812;2023-12-20T04:50:27;825.38;;;777.72;;
17197;SDS011;8715;51.010;6.812;2023-12-20T04:53:12;839.63;;;790.75;;
17197;SDS011;8715;51.010;6.812;2023-12-20T04:55:57;838.60;;;789.67;;
17197;SDS011;8715;51.010;6.812;2023-12-20T04:58:42;840.85;;;792.45;;
17197;SDS011;8715;51.010;6.812;2023-12-20T05:01:28;833.97;;;785.35;;
17197;SDS011;8715;51.010;6.812;2023-12-20T05:04:12;840.80;;;791.45;;
17197;SDS011;8715;51.010;6.812;2023-12-20T05:06:59;830.47;;;782.83;;
17197;SDS011;8715;51.010;6.812;2023-12-20T05:09:44;830.55;;;782.78;;
17197;SDS011;8715;51.010;6.812;2023-12-20T05:12:29;839.42;;;791.10;;
17197;SDS011;8715;51.010;6.812;2023-12-20T05:15:15;836.15;;;787.38;;
17197;SDS011;8715;51.010;6.812;2023-12-20T05:18:00;839.40;;;790.35;;
17197;SDS011;8715;51.010;6.812;2023-12-20T05:20:45;840.67;;;791.70;;
17197;SDS011;8715;51.010;6.812;2023-12-20T05:23:31;838.25;;;789.72;;
17197;SDS011;8715;51.010;6.812;2023-12-20T05:26:17;826.25;;;779.20;;
17197;SDS011;8715;51.010;6.812;2023-12-20T05:29:02;839.30;;;790.30;;
17197;SDS011;8715;51.010;6.812;2023-12-20T05:31:47;841.17;;;792.40;;
17197;SDS011;8715;51.010;6.812;2023-12-20T05:34:32;834.53;;;786.53;;
17197;SDS011;8715;51.010;6.812;2023-12-20T05:37:17;830.45;;;783.10;;
17197;SDS011;8715;51.010;6.812;2023-12-20T05:40:04;831.33;;;782.70;;
17197;SDS011;8715;51.010;6.812;2023-12-20T05:42:49;836.88;;;788.88;;
17197;SDS011;8715;51.010;6.812;2023-12-20T05:45:34;826.08;;;778.22;;
17197;SDS011;8715;51.010;6.812;2023-12-20T05:48:19;862.65;;;812.35;;
17197;SDS011;8715;51.010;6.812;2023-12-20T05:51:04;850.22;;;800.88;;
17197;SDS011;8715;51.010;6.812;2023-12-20T05:53:49;841.88;;;793.20;;
17197;SDS011;8715;51.010;6.812;2023-12-20T05:56:35;833.22;;;785.25;;
17197;SDS011;8715;51.010;6.812;2023-12-20T05:59:20;837.08;;;789.10;;
17197;SDS011;8715;51.010;6.812;2023-12-20T06:02:06;832.78;;;784.38;;
17197;SDS011;8715;51.010;6.812;2023-12-20T06:04:51;836.00;;;787.33;;
17197;SDS011;8715;51.010;6.812;2023-12-20T06:07:36;840.90;;;791.28;;
17197;SDS011;8715;51.010;6.812;2023-12-20T06:10:21;837.13;;;788.08;;
17197;SDS011;8715;51.010;6.812;2023-12-20T06:13:08;835.83;;;787.60;;
17197;SDS011;8715;51.010;6.812;2023-12-20T06:15:53;839.53;;;790.47;;
17197;SDS011;8715;51.010;6.812;2023-12-20T06:18:38;846.90;;;797.35;;
17197;SDS011;8715;51.010;6.812;2023-12-20T06:21:24;833.53;;;784.67;;
17197;SDS011;8715;51.010;6.812;2023-12-20T06:24:08;838.38;;;789.65;;
17197;SDS011;8715;51.010;6.812;2023-12-20T06:26:54;843.33;;;794.13;;
17197;SDS011;8715;51.010;6.812;2023-12-20T06:29:40;836.85;;;788.10;;
17197;SDS011;8715;51.010;6.812;2023-12-20T06:32:27;856.47;;;806.20;;
17197;SDS011;8715;51.010;6.812;2023-12-20T06:35:13;843.47;;;793.72;;
17197;SDS011;8715;51.010;6.812;2023-12-20T06:37:58;844.20;;;794.03;;
17197;SDS011;8715;51.010;6.812;2023-12-20T06:40:43;845.45;;;795.92;;
17197;SDS011;8715;51.010;6.812;2023-12-20T06:43:28;854.75;;;803.70;;
17197;SDS011;8715;51.010;6.812;2023-12-20T06:46:15;846.67;;;796.30;;
17197;SDS011;8715;51.010;6.812;2023-12-20T06:49:00;843.38;;;793.58;;
17197;SDS011;8715;51.010;6.812;2023-12-20T06:51:45;846.05;;;795.50;;
17197;SDS011;8715;51.010;6.812;2023-12-20T06:54:30;840.67;;;791.05;;
17197;SDS011;8715;51.010;6.812;2023-12-20T06:57:17;846.92;;;796.50;;
17197;SDS011;8715;51.010;6.812;2023-12-20T07:00:04;843.47;;;793.38;;
17197;SDS011;8715;51.010;6.812;2023-12-20T07:02:50;843.72;;;793.30;;
17197;SDS011;8715;51.010;6.812;2023-12-20T07:05:36;845.15;;;794.80;;
17197;SDS011;8715;51.010;6.812;2023-12-20T07:08:21;844.72;;;795.13;;
17197;SDS011;8715;51.010;6.812;2023-12-20T07:14:33;849.83;;;799.00;;
17197;SDS011;8715;51.010;6.812;2023-12-20T07:17:18;865.95;;;814.08;;
17197;SDS011;8715;51.010;6.812;2023-12-20T07:20:07;847.65;;;797.17;;
17197;SDS011;8715;51.010;6.812;2023-12-20T07:22:54;844.72;;;794.65;;
17197;SDS011;8715;51.010;6.812;2023-12-20T07:25:39;845.60;;;795.03;;
17197;SDS011;8715;51.010;6.812;2023-12-20T07:28:24;838.75;;;789.35;;
17197;SDS011;8715;51.010;6.812;2023-12-20T07:31:09;845.38;;;794.80;;
17197;SDS011;8715;51.010;6.812;2023-12-20T07:33:55;859.83;;;808.63;;
17197;SDS011;8715;51.010;6.812;2023-12-20T07:36:41;846.42;;;795.97;;
17197;SDS011;8715;51.010;6.812;2023-12-20T07:39:26;845.10;;;794.72;;
17197;SDS011;8715;51.010;6.812;2023-12-20T07:42:11;846.75;;;796.47;;
17197;SDS011;8715;51.010;6.812;2023-12-20T07:44:56;843.28;;;792.60;;
17197;SDS011;8715;51.010;6.812;2023-12-20T07:47:41;842.92;;;793.30;;
17197;SDS011;8715;51.010;6.812;2023-12-20T07:50:26;839.83;;;790.13;;
17197;SDS011;8715;51.010;6.812;2023-12-20T07:53:12;845.03;;;794.47;;
17197;SDS011;8715;51.010;6.812;2023-12-20T07:55:57;848.10;;;797.60;;
17197;SDS011;8715;51.010;6.812;2023-12-20T07:58:42;842.25;;;792.33;;
17197;SDS011;8715;51.010;6.812;2023-12-20T08:01:27;842.17;;;792.20;;
17197;SDS011;8715;51.010;6.812;2023-12-20T08:14:24;841.67;;;791.45;;
17197;SDS011;8715;51.010;6.812;2023-12-20T08:17:09;847.10;;;796.78;;
17197;SDS011;8715;51.010;6.812;2023-12-20T08:19:54;846.35;;;795.92;;
17197;SDS011;8715;51.010;6.812;2023-12-20T08:22:39;851.55;;;800.80;;
17197;SDS011;8715;51.010;6.812;2023-12-20T08:25:24;844.95;;;795.38;;
17197;SDS011;8715;51.010;6.812;2023-12-20T08:28:09;843.60;;;794.03;;
17197;SDS011;8715;51.010;6.812;2023-12-20T08:30:55;864.85;;;813.00;;
17197;SDS011;8715;51.010;6.812;2023-12-20T08:33:40;855.85;;;804.38;;
17197;SDS011;8715;51.010;6.812;2023-12-20T08:36:25;842.60;;;792.28;;
17197;SDS011;8715;51.010;6.812;2023-12-20T08:39:10;856.20;;;805.15;;
17197;SDS011;8715;51.010;6.812;2023-12-20T08:41:56;841.17;;;791.53;;
17197;SDS011;8715;51.010;6.812;2023-12-20T08:44:41;847.42;;;797.72;;
17197;SDS011;8715;51.010;6.812;2023-12-20T08:47:27;863.83;;;812.13;;
17197;SDS011;8715;51.010;6.812;2023-12-20T08:50:12;843.03;;;793.10;;
17197;SDS011;8715;51.010;6.812;2023-12-20T08:52:59;853.30;;;802.05;;
17197;SDS011;8715;51.010;6.812;2023-12-20T08:55:44;846.10;;;795.50;;
17197;SDS011;8715;51.010;6.812;2023-12-20T08:58:29;844.25;;;794.58;;
17197;SDS011;8715;51.010;6.812;2023-12-20T09:01:14;845.72;;;795.53;;
17197;SDS011;8715;51.010;6.812;2023-12-20T09:04:01;848.50;;;797.50;;
17197;SDS011;8715;51.010;6.812;2023-12-20T09:06:46;849.63;;;798.88;;
17197;SDS011;8715;51.010;6.812;2023-12-20T09:09:31;837.55;;;788.33;;
17197;SDS011;8715;51.010;6.812;2023-12-20T09:12:17;845.00;;;794.35;;
17197;SDS011;8715;51.010;6.812;2023-12-20T09:15:02;853.80;;;802.72;;
17197;SDS011;8715;51.010;6.812;2023-12-20T09:17:48;845.42;;;794.75;;
17197;SDS011;8715;51.010;6.812;2023-12-20T09:20:35;843.25;;;793.30;;
17197;SDS011;8715;51.010;6.812;2023-12-20T09:23:20;850.90;;;800.20;;
17197;SDS011;8715;51.010;6.812;2023-12-20T09:26:05;851.80;;;801.17;;
17197;SDS011;8715;51.010;6.812;2023-12-20T09:28:50;848.75;;;798.05;;
17197;SDS011;8715;51.010;6.812;2023-12-20T09:31:36;847.15;;;796.35;;
17197;SDS011;8715;51.010;6.812;2023-12-20T09:34:21;852.03;;;800.70;;
17197;SDS011;8715;51.010;6.812;2023-12-20T09:37:07;854.58;;;802.47;;
17197;SDS011;8715;51.010;6.812;2023-12-20T09:39:52;851.75;;;800.60;;
17197;SDS011;8715;51.010;6.812;2023-12-20T09:42:38;854.22;;;802.20;;
17197;SDS011;8715;51.010;6.812;2023-12-20T09:45:24;857.17;;;805.10;;
17197;SDS011;8715;51.010;6.812;2023-12-20T09:48:10;856.47;;;804.88;;
17197;SDS011;8715;51.010;6.812;2023-12-20T09:50:55;849.67;;;798.50;;
17197;SDS011;8715;51.010;6.812;2023-12-20T09:53:42;850.10;;;798.45;;
17197;SDS011;8715;51.010;6.812;2023-12-20T09:56:27;853.88;;;802.45;;
17197;SDS011;8715;51.010;6.812;2023-12-20T09:59:13;848.83;;;797.10;;
17197;SDS011;8715;51.010;6.812;2023-12-20T10:01:58;848.42;;;797.60;;
17197;SDS011;8715;51.010;6.812;2023-12-20T10:04:47;848.40;;;796.80;;
17197;SDS011;8715;51.010;6.812;2023-12-20T10:07:32;847.65;;;796.10;;
17197;SDS011;8715;51.010;6.812;2023-12-20T10:10:18;847.15;;;795.67;;
17197;SDS011;8715;51.010;6.812;2023-12-20T10:13:04;849.53;;;798.33;;
17197;SDS011;8715;51.010;6.812;2023-12-20T10:15:49;851.75;;;800.15;;
17197;SDS011;8715;51.010;6.812;2023-12-20T10:18:34;853.47;;;801.53;;
17197;SDS011;8715;51.010;6.812;2023-12-20T10:21:20;850.53;;;799.08;;
17197;SDS011;8715;51.010;6.812;2023-12-20T10:24:06;850.08;;;798.45;;
17197;SDS011;8715;51.010;6.812;2023-12-20T10:27:02;871.30;;;817.92;;
17197;SDS011;8715;51.010;6.812;2023-12-20T10:29:49;854.38;;;802.05;;
17197;SDS011;8715;51.010;6.812;2023-12-20T10:32:35;855.63;;;803.75;;
17197;SDS011;8715;51.010;6.812;2023-12-20T10:35:21;856.22;;;803.22;;
17197;SDS011;8715;51.010;6.812;2023-12-20T10:38:06;851.13;;;799.40;;
17197;SDS011;8715;51.010;6.812;2023-12-20T10:40:53;852.92;;;801.10;;
17197;SDS011;8715;51.010;6.812;2023-12-20T10:43:50;858.00;;;804.70;;
17197;SDS011;8715;51.010;6.812;2023-12-20T10:46:36;852.35;;;800.40;;
17197;SDS011;8715;51.010;6.812;2023-12-20T10:49:23;854.08;;;801.72;;
17197;SDS011;8715;51.010;6.812;2023-12-20T10:52:09;859.08;;;806.42;;
17197;SDS011;8715;51.010;6.812;2023-12-20T10:54:56;861.20;;;807.80;;
17197;SDS011;8715;51.010;6.812;2023-12-20T10:57:41;860.15;;;806.83;;
17197;SDS011;8715;51.010;6.812;2023-12-20T11:00:28;858.35;;;805.33;;
17197;SDS011;8715;51.010;6.812;2023-12-20T11:03:14;852.15;;;799.90;;
17197;SDS011;8715;51.010;6.812;2023-12-20T11:06:02;856.28;;;804.10;;
17197;SDS011;8715;51.010;6.812;2023-12-20T11:08:49;855.75;;;803.40;;
17197;SDS011;8715;51.010;6.812;2023-12-20T11:11:37;857.45;;;805.08;;
17197;SDS011;8715;51.010;6.812;2023-12-20T11:14:25;854.17;;;801.88;;
17197;SDS011;8715;51.010;6.812;2023-12-20T11:17:13;870.78;;;817.20;;
17197;SDS011;8715;51.010;6.812;2023-12-20T11:20:03;870.42;;;816.65;;
17197;SDS011;8715;51.010;6.812;2023-12-20T11:22:52;854.30;;;802.00;;
17197;SDS011;8715;51.010;6.812;2023-12-20T11:25:47;855.80;;;803.00;;
17197;SDS011;8715;51.010;6.812;2023-12-20T11:28:32;854.60;;;802.45;;
17197;SDS011;8715;51.010;6.812;2023-12-20T11:31:17;857.95;;;805.22;;
17197;SDS011;8715;51.010;6.812;2023-12-20T11:34:13;859.28;;;806.22;;
17197;SDS011;8715;51.010;6.812;2023-12-20T11:36:59;855.67;;;803.13;;
17197;SDS011;8715;51.010;6.812;2023-12-20T11:39:44;862.53;;;808.67;;
17197;SDS011;8715;51.010;6.812;2023-12-20T11:42:32;860.75;;;807.28;;
17197;SDS011;8715;51.010;6.812;2023-12-20T11:45:18;873.55;;;819.53;;
17197;SDS011;8715;51.010;6.812;2023-12-20T11:48:05;859.75;;;806.70;;
17197;SDS011;8715;51.010;6.812;2023-12-20T11:50:52;859.92;;;807.13;;
17197;SDS011;8715;51.010;6.812;2023-12-20T11:53:37;854.88;;;802.40;;
17197;SDS011;8715;51.010;6.812;2023-12-20T11:56:22;861.40;;;807.67;;
17197;SDS011;8715;51.010;6.812;2023-12-20T11:59:08;855.83;;;803.33;;
17197;SDS011;8715;51.010;6.812;2023-12-20T12:01:55;855.10;;;802.50;;
17197;SDS011;8715;51.010;6.812;2023-12-20T12:04:44;858.38;;;805.20;;
17197;SDS011;8715;51.010;6.812;2023-12-20T12:07:30;856.78;;;803.88;;
17197;SDS011;8715;51.010;6.812;2023-12-20T12:10:16;856.63;;;804.00;;
17197;SDS011;8715;51.010;6.812;2023-12-20T12:13:00;863.67;;;809.85;;
17197;SDS011;8715;51.010;6.812;2023-12-20T12:15:46;859.72;;;806.80;;
17197;SDS011;8715;51.010;6.812;2023-12-20T12:18:31;859.47;;;806.80;;
17197;SDS011;8715;51.010;6.812;2023-12-20T12:21:18;857.22;;;804.70;;
17197;SDS011;8715;51.010;6.812;2023-12-20T12:24:08;858.63;;;805.85;;
17197;SDS011;8715;51.010;6.812;2023-12-20T12:26:56;858.63;;;805.47;;
17197;SDS011;8715;51.010;6.812;2023-12-20T12:30:01;879.25;;;824.08;;
17197;SDS011;8715;51.010;6.812;2023-12-20T12:32:47;854.70;;;802.33;;
17197;SDS011;8715;51.010;6.812;2023-12-20T12:35:32;857.80;;;805.13;;
17197;SDS011;8715;51.010;6.812;2023-12-20T12:38:19;866.78;;;813.60;;
17197;SDS011;8715;51.010;6.812;2023-12-20T12:41:06;857.25;;;804.90;;
17197;SDS011;8715;51.010;6.812;2023-12-20T12:43:51;860.35;;;806.53;;
17197;SDS011;8715;51.010;6.812;2023-12-20T12:46:36;857.85;;;805.20;;
17197;SDS011;8715;51.010;6.812;2023-12-20T12:49:21;872.75;;;818.88;;
17197;SDS011;8715;51.010;6.812;2023-12-20T12:52:06;860.55;;;807.13;;
17197;SDS011;8715;51.010;6.812;2023-12-20T12:55:11;854.72;;;802.28;;
17197;SDS011;8715;51.010;6.812;2023-12-20T12:57:58;870.75;;;817.10;;
17197;SDS011;8715;51.010;6.812;2023-12-20T13:04:11;857.95;;;805.10;;
17197;SDS011;8715;51.010;6.812;2023-12-20T13:06:56;856.05;;;803.47;;
17197;SDS011;8715;51.010;6.812;2023-12-20T13:09:42;857.08;;;804.83;;
17197;SDS011;8715;51.010;6.812;2023-12-20T13:12:26;859.55;;;806.75;;
17197;SDS011;8715;51.010;6.812;2023-12-20T13:15:13;858.03;;;804.85;;
17197;SDS011;8715;51.010;6.812;2023-12-20T13:17:58;861.70;;;808.58;;
17197;SDS011;8715;51.010;6.812;2023-12-20T13:20:43;862.95;;;808.97;;
17197;SDS011;8715;51.010;6.812;2023-12-20T13:23:28;858.22;;;804.70;;
17197;SDS011;8715;51.010;6.812;2023-12-20T13:26:13;864.20;;;810.35;;
17197;SDS011;8715;51.010;6.812;2023-12-20T13:28:58;864.05;;;809.97;;
17197;SDS011;8715;51.010;6.812;2023-12-20T13:31:44;877.38;;;822.70;;
17197;SDS011;8715;51.010;6.812;2023-12-20T13:34:29;858.33;;;805.15;;
17197;SDS011;8715;51.010;6.812;2023-12-20T13:37:14;859.30;;;806.22;;
17197;SDS011;8715;51.010;6.812;2023-12-20T13:39:59;864.95;;;810.90;;
17197;SDS011;8715;51.010;6.812;2023-12-20T13:42:45;855.13;;;802.88;;
17197;SDS011;8715;51.010;6.812;2023-12-20T13:45:30;863.92;;;810.08;;
17197;SDS011;8715;51.010;6.812;2023-12-20T13:48:17;860.17;;;806.88;;
17197;SDS011;8715;51.010;6.812;2023-12-20T13:51:01;866.05;;;811.25;;
17197;SDS011;8715;51.010;6.812;2023-12-20T13:53:47;855.10;;;802.17;;
17197;SDS011;8715;51.010;6.812;2023-12-20T13:56:33;862.63;;;809.00;;
17197;SDS011;8715;51.010;6.812;2023-12-20T13:59:18;856.40;;;803.95;;
17197;SDS011;8715;51.010;6.812;2023-12-20T14:02:03;860.30;;;806.90;;
17197;SDS011;8715;51.010;6.812;2023-12-20T14:04:49;876.30;;;820.97;;
17197;SDS011;8715;51.010;6.812;2023-12-20T14:07:34;860.40;;;807.53;;
17197;SDS011;8715;51.010;6.812;2023-12-20T14:10:19;861.00;;;808.10;;
17197;SDS011;8715;51.010;6.812;2023-12-20T14:13:04;857.83;;;805.47;;
17197;SDS011;8715;51.010;6.812;2023-12-20T14:15:50;860.58;;;807.55;;
17197;SDS011;8715;51.010;6.812;2023-12-20T14:18:35;861.50;;;807.25;;
17197;SDS011;8715;51.010;6.812;2023-12-20T14:21:21;874.10;;;820.20;;
17197;SDS011;8715;51.010;6.812;2023-12-20T14:24:07;861.00;;;807.80;;
17197;SDS011;8715;51.010;6.812;2023-12-20T14:26:52;864.92;;;811.47;;
17197;SDS011;8715;51.010;6.812;2023-12-20T14:29:37;863.00;;;809.45;;
17197;SDS011;8715;51.010;6.812;2023-12-20T14:32:23;864.70;;;810.97;;
17197;SDS011;8715;51.010;6.812;2023-12-20T14:35:10;860.28;;;806.67;;
17197;SDS011;8715;51.010;6.812;2023-12-20T14:37:56;862.55;;;808.88;;
17197;SDS011;8715;51.010;6.812;2023-12-20T14:40:41;862.83;;;808.85;;
17197;SDS011;8715;51.010;6.812;2023-12-20T14:43:26;869.95;;;815.15;;
17197;SDS011;8715;51.010;6.812;2023-12-20T14:46:11;866.00;;;812.05;;
17197;SDS011;8715;51.010;6.812;2023-12-20T14:48:56;862.00;;;808.13;;
17197;SDS011;8715;51.010;6.812;2023-12-20T14:51:43;864.20;;;810.00;;
17197;SDS011;8715;51.010;6.812;2023-12-20T14:54:29;876.95;;;821.88;;
17197;SDS011;8715;51.010;6.812;2023-12-20T14:57:15;864.60;;;809.80;;
17197;SDS011;8715;51.010;6.812;2023-12-20T15:00:01;865.78;;;811.17;;
17197;SDS011;8715;51.010;6.812;2023-12-20T15:02:46;866.83;;;812.28;;
17197;SDS011;8715;51.010;6.812;2023-12-20T15:05:31;863.47;;;809.40;;
17197;SDS011;8715;51.010;6.812;2023-12-20T15:08:16;862.90;;;808.67;;
17197;SDS011;8715;51.010;6.812;2023-12-20T15:11:03;877.85;;;822.70;;
17197;SDS011;8715;51.010;6.812;2023-12-20T15:13:48;863.63;;;809.53;;
17197;SDS011;8715;51.010;6.812;2023-12-20T15:16:38;867.10;;;812.40;;
17197;SDS011;8715;51.010;6.812;2023-12-20T15:19:23;866.90;;;812.22;;
17197;SDS011;8715;51.010;6.812;2023-12-20T15:22:08;869.38;;;814.85;;
17197;SDS011;8715;51.010;6.812;2023-12-20T15:24:53;859.88;;;805.40;;
17197;SDS011;8715;51.010;6.812;2023-12-20T15:27:40;863.55;;;809.65;;
17197;SDS011;8715;51.010;6.812;2023-12-20T15:30:26;860.47;;;807.20;;
17197;SDS011;8715;51.010;6.812;2023-12-20T15:33:11;860.50;;;807.00;;
17197;SDS011;8715;51.010;6.812;2023-12-20T15:35:56;865.25;;;811.05;;
17197;SDS011;8715;51.010;6.812;2023-12-20T15:38:41;864.92;;;810.97;;
17197;SDS011;8715;51.010;6.812;2023-12-20T15:41:26;861.88;;;808.38;;
17197;SDS011;8715;51.010;6.812;2023-12-20T15:44:12;880.53;;;825.60;;
17197;SDS011;8715;51.010;6.812;2023-12-20T15:46:57;861.95;;;808.33;;
17197;SDS011;8715;51.010;6.812;2023-12-20T15:49:42;859.03;;;805.95;;
17197;SDS011;8715;51.010;6.812;2023-12-20T15:52:29;863.05;;;809.47;;
17197;SDS011;8715;51.010;6.812;2023-12-20T15:55:14;864.22;;;810.00;;
17197;SDS011;8715;51.010;6.812;2023-12-20T15:57:59;856.55;;;803.78;;
17197;SDS011;8715;51.010;6.812;2023-12-20T16:00:46;859.92;;;806.38;;
17197;SDS011;8715;51.010;6.812;2023-12-20T16:03:31;874.05;;;819.55;;
17197;SDS011;8715;51.010;6.812;2023-12-20T16:06:16;876.67;;;822.33;;
17197;SDS011;8715;51.010;6.812;2023-12-20T16:09:01;860.60;;;806.95;;
17197;SDS011;8715;51.010;6.812;2023-12-20T16:11:47;868.08;;;814.22;;
17197;SDS011;8715;51.010;6.812;2023-12-20T16:14:32;863.05;;;809.63;;
17197;SDS011;8715;51.010;6.812;2023-12-20T16:17:18;855.92;;;803.42;;
17197;SDS011;8715;51.010;6.812;2023-12-20T16:20:04;874.33;;;820.17;;
17197;SDS011;8715;51.010;6.812;2023-12-20T16:22:49;870.97;;;816.95;;
17197;SDS011;8715;51.010;6.812;2023-12-20T16:25:35;859.40;;;806.17;;
17197;SDS011;8715;51.010;6.812;2023-12-20T16:28:21;858.40;;;805.38;;
17197;SDS011;8715;51.010;6.812;2023-12-20T16:31:07;875.38;;;820.65;;
17197;SDS011;8715;51.010;6.812;2023-12-20T16:33:53;863.85;;;809.97;;